sensor_id;sensor_type;location;lat;lon;timestamp;P1;durP1;ratioP1;P2;durP2;ratioP2
14603;SDS011;7388;51.078;13.740;2024-02-16T00:00:44;21.50;;;17.33;;
14603;SDS011;7388;51.078;13.740;2024-02-16T00:03:11;23.35;;;18.45;;
14603;SDS011;7388;51.078;13.740;2024-02-16T00:05:37;25.23;;;19.70;;
14603;SDS011;7388;51.078;13.740;2024-02-16T00:08:03;23.93;;;18.83;;
14603;SDS011;7388;51.078;13.740;2024-02-16T00:10:29;20.65;;;18.00;;
14603;SDS011;7388;51.078;13.740;2024-02-16T00:12:55;22.50;;;19.80;;
14603;SDS011;7388;51.078;13.740;2024-02-16T00:15:21;22.65;;;19.85;;
14603;SDS011;7388;51.078;13.740;2024-02-16T00:17:47;28.13;;;18.33;;
14603;SDS011;7388;51.078;13.740;2024-02-16T00:20:13;23.33;;;17.63;;
14603;SDS011;7388;51.078;13.740;2024-02-16T00:22:39;21.03;;;18.67;;
14603;SDS011;7388;51.078;13.740;2024-02-16T00:25:05;23.00;;;18.90;;
14603;SDS011;7388;51.078;13.740;2024-02-16T00:27:31;22.55;;;19.65;;
14603;SDS011;7388;51.078;13.740;2024-02-16T00:29:57;21.27;;;17.20;;
14603;SDS011;7388;51.078;13.740;2024-02-16T00:32:25;21.07;;;17.07;;
14603;SDS011;7388;51.078;13.740;2024-02-16T00:34:55;21.75;;;18.85;;
14603;SDS011;7388;51.078;13.740;2024-02-16T00:37:22;20.95;;;17.60;;
14603;SDS011;7388;51.078;13.740;2024-02-16T00:39:49;20.60;;;17.33;;
14603;SDS011;7388;51.078;13.740;2024-02-16T00:42:15;22.53;;;16.33;;
14603;SDS011;7388;51.078;13.740;2024-02-16T00:44:41;21.13;;;18.33;;
14603;SDS011;7388;51.078;13.740;2024-02-16T00:47:07;22.63;;;17.60;;
14603;SDS011;7388;51.078;13.740;2024-02-16T00:49:35;23.75;;;18.27;;
14603;SDS011;7388;51.078;13.740;2024-02-16T00:52:01;20.73;;;17.40;;
14603;SDS011;7388;51.078;13.740;2024-02-16T00:54:27;23.73;;;18.92;;
14603;SDS011;7388;51.078;13.740;2024-02-16T00:56:53;18.50;;;15.67;;
14603;SDS011;7388;51.078;13.740;2024-02-16T00:59:20;19.67;;;17.67;;
14603;SDS011;7388;51.078;13.740;2024-02-16T01:01:46;24.42;;;17.45;;
14603;SDS011;7388;51.078;13.740;2024-02-16T01:04:12;19.93;;;16.70;;
14603;SDS011;7388;51.078;13.740;2024-02-16T01:06:37;18.30;;;14.63;;
14603;SDS011;7388;51.078;13.740;2024-02-16T01:09:03;18.97;;;15.80;;
14603;SDS011;7388;51.078;13.740;2024-02-16T01:11:29;21.10;;;16.37;;
14603;SDS011;7388;51.078;13.740;2024-02-16T01:13:55;20.80;;;15.70;;
14603;SDS011;7388;51.078;13.740;2024-02-16T01:16:21;21.33;;;16.05;;
14603;SDS011;7388;51.078;13.740;2024-02-16T01:18:46;22.50;;;18.43;;
14603;SDS011;7388;51.078;13.740;2024-02-16T01:21:12;19.07;;;15.67;;
14603;SDS011;7388;51.078;13.740;2024-02-16T01:23:38;22.90;;;16.47;;
14603;SDS011;7388;51.078;13.740;2024-02-16T01:26:04;25.73;;;17.00;;
14603;SDS011;7388;51.078;13.740;2024-02-16T01:28:29;18.33;;;15.90;;
14603;SDS011;7388;51.078;13.740;2024-02-16T01:30:55;17.23;;;14.90;;
14603;SDS011;7388;51.078;13.740;2024-02-16T01:33:23;20.33;;;16.42;;
14603;SDS011;7388;51.078;13.740;2024-02-16T01:35:49;21.37;;;16.10;;
14603;SDS011;7388;51.078;13.740;2024-02-16T01:38:15;19.77;;;15.40;;
14603;SDS011;7388;51.078;13.740;2024-02-16T01:40:40;18.53;;;15.30;;
14603;SDS011;7388;51.078;13.740;2024-02-16T01:43:06;21.00;;;16.53;;
14603;SDS011;7388;51.078;13.740;2024-02-16T01:45:32;20.43;;;15.50;;
14603;SDS011;7388;51.078;13.740;2024-02-16T01:47:57;22.90;;;17.67;;
14603;SDS011;7388;51.078;13.740;2024-02-16T01:50:24;23.42;;;17.92;;
14603;SDS011;7388;51.078;13.740;2024-02-16T01:52:50;20.60;;;16.60;;
14603;SDS011;7388;51.078;13.740;2024-02-16T01:55:17;20.67;;;16.27;;
14603;SDS011;7388;51.078;13.740;2024-02-16T01:57:46;21.08;;;16.70;;
14603;SDS011;7388;51.078;13.740;2024-02-16T02:00:13;22.08;;;15.93;;
14603;SDS011;7388;51.078;13.740;2024-02-16T02:02:46;24.90;;;16.08;;
14603;SDS011;7388;51.078;13.740;2024-02-16T02:05:12;24.60;;;16.95;;
14603;SDS011;7388;51.078;13.740;2024-02-16T02:07:40;22.10;;;18.70;;
14603;SDS011;7388;51.078;13.740;2024-02-16T02:10:06;21.38;;;16.60;;
14603;SDS011;7388;51.078;13.740;2024-02-16T02:12:32;23.13;;;17.15;;
14603;SDS011;7388;51.078;13.740;2024-02-16T02:14:57;20.60;;;16.17;;
14603;SDS011;7388;51.078;13.740;2024-02-16T02:17:23;22.83;;;18.20;;
14603;SDS011;7388;51.078;13.740;2024-02-16T02:19:49;24.43;;;16.93;;
14603;SDS011;7388;51.078;13.740;2024-02-16T02:22:18;24.70;;;18.07;;
14603;SDS011;7388;51.078;13.740;2024-02-16T02:24:45;27.75;;;18.15;;
14603;SDS011;7388;51.078;13.740;2024-02-16T02:27:11;23.95;;;17.95;;
14603;SDS011;7388;51.078;13.740;2024-02-16T02:29:38;26.10;;;18.55;;
14603;SDS011;7388;51.078;13.740;2024-02-16T02:32:04;20.80;;;16.70;;
14603;SDS011;7388;51.078;13.740;2024-02-16T02:34:30;22.48;;;17.10;;
14603;SDS011;7388;51.078;13.740;2024-02-16T02:36:56;21.80;;;16.03;;
14603;SDS011;7388;51.078;13.740;2024-02-16T02:39:22;21.27;;;16.13;;
14603;SDS011;7388;51.078;13.740;2024-02-16T02:41:48;18.90;;;15.00;;
14603;SDS011;7388;51.078;13.740;2024-02-16T02:44:14;19.00;;;14.00;;
14603;SDS011;7388;51.078;13.740;2024-02-16T02:46:40;19.40;;;15.40;;
14603;SDS011;7388;51.078;13.740;2024-02-16T02:49:06;23.00;;;17.15;;
14603;SDS011;7388;51.078;13.740;2024-02-16T02:51:32;18.50;;;14.57;;
14603;SDS011;7388;51.078;13.740;2024-02-16T02:53:58;20.52;;;14.23;;
14603;SDS011;7388;51.078;13.740;2024-02-16T02:56:23;19.77;;;15.33;;
14603;SDS011;7388;51.078;13.740;2024-02-16T02:58:49;20.63;;;15.20;;
14603;SDS011;7388;51.078;13.740;2024-02-16T03:01:15;24.77;;;16.60;;
14603;SDS011;7388;51.078;13.740;2024-02-16T03:03:40;21.57;;;15.17;;
14603;SDS011;7388;51.078;13.740;2024-02-16T03:06:08;18.45;;;15.10;;
14603;SDS011;7388;51.078;13.740;2024-02-16T03:08:34;18.37;;;15.53;;
14603;SDS011;7388;51.078;13.740;2024-02-16T03:11:00;21.48;;;16.67;;
14603;SDS011;7388;51.078;13.740;2024-02-16T03:13:26;18.20;;;15.20;;
14603;SDS011;7388;51.078;13.740;2024-02-16T03:15:52;21.63;;;16.63;;
14603;SDS011;7388;51.078;13.740;2024-02-16T03:18:18;24.48;;;17.08;;
14603;SDS011;7388;51.078;13.740;2024-02-16T03:20:45;18.08;;;14.98;;
14603;SDS011;7388;51.078;13.740;2024-02-16T03:23:13;18.58;;;14.85;;
14603;SDS011;7388;51.078;13.740;2024-02-16T03:25:40;20.90;;;17.67;;
14603;SDS011;7388;51.078;13.740;2024-02-16T03:28:07;21.07;;;15.90;;
14603;SDS011;7388;51.078;13.740;2024-02-16T03:30:35;19.65;;;16.60;;
14603;SDS011;7388;51.078;13.740;2024-02-16T03:33:00;18.70;;;16.70;;
14603;SDS011;7388;51.078;13.740;2024-02-16T03:35:26;23.27;;;17.40;;
14603;SDS011;7388;51.078;13.740;2024-02-16T03:37:52;20.30;;;16.23;;
14603;SDS011;7388;51.078;13.740;2024-02-16T03:40:18;20.33;;;16.60;;
14603;SDS011;7388;51.078;13.740;2024-02-16T03:42:44;18.10;;;16.00;;
14603;SDS011;7388;51.078;13.740;2024-02-16T03:45:10;21.53;;;17.97;;
14603;SDS011;7388;51.078;13.740;2024-02-16T03:47:36;21.17;;;18.90;;
14603;SDS011;7388;51.078;13.740;2024-02-16T03:50:02;20.13;;;15.67;;
14603;SDS011;7388;51.078;13.740;2024-02-16T03:52:28;18.20;;;15.68;;
14603;SDS011;7388;51.078;13.740;2024-02-16T03:54:54;20.63;;;17.03;;
14603;SDS011;7388;51.078;13.740;2024-02-16T03:57:19;21.03;;;15.73;;
14603;SDS011;7388;51.078;13.740;2024-02-16T03:59:45;20.80;;;17.10;;
14603;SDS011;7388;51.078;13.740;2024-02-16T04:02:11;19.20;;;16.80;;
14603;SDS011;7388;51.078;13.740;2024-02-16T04:04:40;26.65;;;18.98;;
14603;SDS011;7388;51.078;13.740;2024-02-16T04:07:06;24.70;;;19.33;;
14603;SDS011;7388;51.078;13.740;2024-02-16T04:09:33;23.92;;;18.83;;
14603;SDS011;7388;51.078;13.740;2024-02-16T04:11:59;21.42;;;19.05;;
14603;SDS011;7388;51.078;13.740;2024-02-16T04:14:26;22.60;;;19.10;;
14603;SDS011;7388;51.078;13.740;2024-02-16T04:16:52;20.95;;;18.23;;
14603;SDS011;7388;51.078;13.740;2024-02-16T04:19:18;22.90;;;19.43;;
14603;SDS011;7388;51.078;13.740;2024-02-16T04:21:43;23.27;;;18.80;;
14603;SDS011;7388;51.078;13.740;2024-02-16T04:24:09;22.70;;;18.77;;
14603;SDS011;7388;51.078;13.740;2024-02-16T04:26:35;25.23;;;18.30;;
14603;SDS011;7388;51.078;13.740;2024-02-16T04:29:02;23.00;;;19.03;;
14603;SDS011;7388;51.078;13.740;2024-02-16T04:31:29;22.33;;;20.00;;
14603;SDS011;7388;51.078;13.740;2024-02-16T04:33:55;23.53;;;19.50;;
14603;SDS011;7388;51.078;13.740;2024-02-16T04:36:21;23.20;;;18.30;;
14603;SDS011;7388;51.078;13.740;2024-02-16T04:38:46;24.73;;;19.27;;
14603;SDS011;7388;51.078;13.740;2024-02-16T04:41:12;24.60;;;19.87;;
14603;SDS011;7388;51.078;13.740;2024-02-16T04:43:38;21.53;;;18.77;;
14603;SDS011;7388;51.078;13.740;2024-02-16T04:46:04;21.90;;;18.35;;
14603;SDS011;7388;51.078;13.740;2024-02-16T04:48:30;22.87;;;19.30;;
14603;SDS011;7388;51.078;13.740;2024-02-16T04:50:57;25.30;;;20.65;;
14603;SDS011;7388;51.078;13.740;2024-02-16T04:53:23;25.57;;;20.30;;
14603;SDS011;7388;51.078;13.740;2024-02-16T04:55:48;24.40;;;21.17;;
14603;SDS011;7388;51.078;13.740;2024-02-16T04:58:14;20.73;;;18.47;;
14603;SDS011;7388;51.078;13.740;2024-02-16T05:00:40;21.73;;;19.43;;
14603;SDS011;7388;51.078;13.740;2024-02-16T05:03:06;22.40;;;20.00;;
14603;SDS011;7388;51.078;13.740;2024-02-16T05:05:32;24.37;;;17.83;;
14603;SDS011;7388;51.078;13.740;2024-02-16T05:07:57;22.00;;;19.37;;
14603;SDS011;7388;51.078;13.740;2024-02-16T05:10:23;24.77;;;22.07;;
14603;SDS011;7388;51.078;13.740;2024-02-16T05:12:49;23.50;;;20.93;;
14603;SDS011;7388;51.078;13.740;2024-02-16T05:15:15;24.30;;;19.53;;
14603;SDS011;7388;51.078;13.740;2024-02-16T05:17:42;23.33;;;20.02;;
14603;SDS011;7388;51.078;13.740;2024-02-16T05:20:11;25.90;;;20.60;;
14603;SDS011;7388;51.078;13.740;2024-02-16T05:22:43;26.25;;;20.83;;
14603;SDS011;7388;51.078;13.740;2024-02-16T05:25:11;26.23;;;22.02;;
14603;SDS011;7388;51.078;13.740;2024-02-16T05:27:37;22.35;;;18.90;;
14603;SDS011;7388;51.078;13.740;2024-02-16T05:30:03;25.73;;;19.90;;
14603;SDS011;7388;51.078;13.740;2024-02-16T05:32:33;24.70;;;20.90;;
14603;SDS011;7388;51.078;13.740;2024-02-16T05:35:03;25.95;;;23.25;;
14603;SDS011;7388;51.078;13.740;2024-02-16T05:37:40;25.38;;;21.00;;
14603;SDS011;7388;51.078;13.740;2024-02-16T05:40:12;20.83;;;17.70;;
14603;SDS011;7388;51.078;13.740;2024-02-16T05:42:50;23.10;;;20.45;;
14603;SDS011;7388;51.078;13.740;2024-02-16T05:45:17;26.13;;;21.50;;
14603;SDS011;7388;51.078;13.740;2024-02-16T05:47:44;24.25;;;21.67;;
14603;SDS011;7388;51.078;13.740;2024-02-16T05:50:10;24.23;;;20.88;;
14603;SDS011;7388;51.078;13.740;2024-02-16T05:52:40;24.70;;;20.30;;
14603;SDS011;7388;51.078;13.740;2024-02-16T05:55:09;22.50;;;19.20;;
14603;SDS011;7388;51.078;13.740;2024-02-16T05:57:36;23.73;;;20.50;;
14603;SDS011;7388;51.078;13.740;2024-02-16T06:00:03;23.92;;;20.13;;
14603;SDS011;7388;51.078;13.740;2024-02-16T06:02:33;26.83;;;21.95;;
14603;SDS011;7388;51.078;13.740;2024-02-16T06:05:00;25.35;;;19.95;;
14603;SDS011;7388;51.078;13.740;2024-02-16T06:07:27;27.08;;;22.30;;
14603;SDS011;7388;51.078;13.740;2024-02-16T06:09:54;25.70;;;20.87;;
14603;SDS011;7388;51.078;13.740;2024-02-16T06:12:21;22.52;;;19.75;;
14603;SDS011;7388;51.078;13.740;2024-02-16T06:14:47;21.30;;;18.73;;
14603;SDS011;7388;51.078;13.740;2024-02-16T06:17:17;25.40;;;21.17;;
14603;SDS011;7388;51.078;13.740;2024-02-16T06:19:43;27.73;;;20.83;;
14603;SDS011;7388;51.078;13.740;2024-02-16T06:22:09;23.63;;;20.20;;
14603;SDS011;7388;51.078;13.740;2024-02-16T06:24:35;26.45;;;22.05;;
14603;SDS011;7388;51.078;13.740;2024-02-16T06:27:01;30.05;;;22.77;;
14603;SDS011;7388;51.078;13.740;2024-02-16T06:29:28;27.38;;;22.25;;
14603;SDS011;7388;51.078;13.740;2024-02-16T06:31:55;23.65;;;19.48;;
14603;SDS011;7388;51.078;13.740;2024-02-16T06:34:21;23.88;;;21.23;;
14603;SDS011;7388;51.078;13.740;2024-02-16T06:36:47;26.33;;;21.73;;
14603;SDS011;7388;51.078;13.740;2024-02-16T06:39:16;26.30;;;23.23;;
14603;SDS011;7388;51.078;13.740;2024-02-16T06:41:43;24.65;;;21.55;;
14603;SDS011;7388;51.078;13.740;2024-02-16T06:44:11;23.88;;;21.13;;
14603;SDS011;7388;51.078;13.740;2024-02-16T06:46:37;28.08;;;21.27;;
14603;SDS011;7388;51.078;13.740;2024-02-16T06:49:03;25.40;;;21.00;;
14603;SDS011;7388;51.078;13.740;2024-02-16T06:51:29;28.67;;;21.60;;
14603;SDS011;7388;51.078;13.740;2024-02-16T06:53:54;26.17;;;22.50;;
14603;SDS011;7388;51.078;13.740;2024-02-16T06:56:20;27.27;;;21.87;;
14603;SDS011;7388;51.078;13.740;2024-02-16T06:58:46;27.23;;;22.40;;
14603;SDS011;7388;51.078;13.740;2024-02-16T07:01:13;28.27;;;21.95;;
14603;SDS011;7388;51.078;13.740;2024-02-16T07:03:39;26.83;;;23.08;;
14603;SDS011;7388;51.078;13.740;2024-02-16T07:06:05;29.70;;;25.63;;
14603;SDS011;7388;51.078;13.740;2024-02-16T07:08:35;24.20;;;19.80;;
14603;SDS011;7388;51.078;13.740;2024-02-16T07:11:02;27.90;;;23.70;;
14603;SDS011;7388;51.078;13.740;2024-02-16T07:13:28;26.67;;;22.20;;
14603;SDS011;7388;51.078;13.740;2024-02-16T07:15:54;22.90;;;19.87;;
14603;SDS011;7388;51.078;13.740;2024-02-16T07:18:20;24.40;;;20.37;;
14603;SDS011;7388;51.078;13.740;2024-02-16T07:20:46;26.58;;;21.50;;
14603;SDS011;7388;51.078;13.740;2024-02-16T07:23:12;25.42;;;22.77;;
14603;SDS011;7388;51.078;13.740;2024-02-16T07:25:40;24.10;;;21.17;;
14603;SDS011;7388;51.078;13.740;2024-02-16T07:28:07;27.77;;;22.63;;
14603;SDS011;7388;51.078;13.740;2024-02-16T07:30:33;29.50;;;25.60;;
14603;SDS011;7388;51.078;13.740;2024-02-16T07:33:01;23.52;;;20.52;;
14603;SDS011;7388;51.078;13.740;2024-02-16T07:35:27;23.97;;;20.40;;
14603;SDS011;7388;51.078;13.740;2024-02-16T07:37:53;23.37;;;20.07;;
14603;SDS011;7388;51.078;13.740;2024-02-16T07:40:19;24.57;;;20.80;;
14603;SDS011;7388;51.078;13.740;2024-02-16T07:42:45;22.48;;;20.10;;
14603;SDS011;7388;51.078;13.740;2024-02-16T07:45:11;26.50;;;23.77;;
14603;SDS011;7388;51.078;13.740;2024-02-16T07:47:38;24.20;;;21.47;;
14603;SDS011;7388;51.078;13.740;2024-02-16T07:50:05;23.95;;;19.30;;
14603;SDS011;7388;51.078;13.740;2024-02-16T07:52:31;22.85;;;19.35;;
14603;SDS011;7388;51.078;13.740;2024-02-16T07:54:57;25.33;;;21.47;;
14603;SDS011;7388;51.078;13.740;2024-02-16T07:57:23;25.80;;;21.30;;
14603;SDS011;7388;51.078;13.740;2024-02-16T07:59:49;24.70;;;19.42;;
14603;SDS011;7388;51.078;13.740;2024-02-16T08:02:15;25.83;;;21.67;;
14603;SDS011;7388;51.078;13.740;2024-02-16T08:04:42;25.38;;;20.98;;
14603;SDS011;7388;51.078;13.740;2024-02-16T08:07:12;23.23;;;19.30;;
14603;SDS011;7388;51.078;13.740;2024-02-16T08:09:37;33.33;;;19.80;;
14603;SDS011;7388;51.078;13.740;2024-02-16T08:12:04;23.67;;;21.00;;
14603;SDS011;7388;51.078;13.740;2024-02-16T08:14:34;24.35;;;21.60;;
14603;SDS011;7388;51.078;13.740;2024-02-16T08:17:00;24.90;;;20.73;;
14603;SDS011;7388;51.078;13.740;2024-02-16T08:19:36;24.87;;;21.03;;
14603;SDS011;7388;51.078;13.740;2024-02-16T08:22:02;22.67;;;20.30;;
14603;SDS011;7388;51.078;13.740;2024-02-16T08:24:31;25.80;;;20.85;;
14603;SDS011;7388;51.078;13.740;2024-02-16T08:26:57;25.15;;;21.13;;
14603;SDS011;7388;51.078;13.740;2024-02-16T08:29:23;25.10;;;21.57;;
14603;SDS011;7388;51.078;13.740;2024-02-16T08:31:50;24.67;;;21.17;;
14603;SDS011;7388;51.078;13.740;2024-02-16T08:34:16;24.35;;;20.88;;
14603;SDS011;7388;51.078;13.740;2024-02-16T08:36:46;23.17;;;20.33;;
14603;SDS011;7388;51.078;13.740;2024-02-16T08:39:13;23.90;;;20.52;;
14603;SDS011;7388;51.078;13.740;2024-02-16T08:41:39;23.80;;;20.55;;
14603;SDS011;7388;51.078;13.740;2024-02-16T08:44:08;23.53;;;21.03;;
14603;SDS011;7388;51.078;13.740;2024-02-16T08:46:35;23.08;;;20.58;;
14603;SDS011;7388;51.078;13.740;2024-02-16T08:49:01;23.50;;;19.67;;
14603;SDS011;7388;51.078;13.740;2024-02-16T08:51:28;24.63;;;20.80;;
14603;SDS011;7388;51.078;13.740;2024-02-16T08:53:54;22.90;;;20.50;;
14603;SDS011;7388;51.078;13.740;2024-02-16T08:56:20;24.30;;;21.42;;
14603;SDS011;7388;51.078;13.740;2024-02-16T08:58:45;25.40;;;21.40;;
14603;SDS011;7388;51.078;13.740;2024-02-16T09:01:11;29.60;;;24.63;;
14603;SDS011;7388;51.078;13.740;2024-02-16T09:03:37;31.63;;;22.57;;
14603;SDS011;7388;51.078;13.740;2024-02-16T09:06:05;25.10;;;21.58;;
14603;SDS011;7388;51.078;13.740;2024-02-16T09:08:31;24.98;;;22.00;;
14603;SDS011;7388;51.078;13.740;2024-02-16T09:11:00;24.05;;;19.95;;
14603;SDS011;7388;51.078;13.740;2024-02-16T09:13:32;24.95;;;21.67;;
14603;SDS011;7388;51.078;13.740;2024-02-16T09:15:59;24.60;;;20.50;;
14603;SDS011;7388;51.078;13.740;2024-02-16T09:18:25;23.25;;;20.75;;
14603;SDS011;7388;51.078;13.740;2024-02-16T09:20:51;24.03;;;21.23;;
14603;SDS011;7388;51.078;13.740;2024-02-16T09:23:17;24.60;;;18.87;;
14603;SDS011;7388;51.078;13.740;2024-02-16T09:25:42;22.40;;;19.90;;
14603;SDS011;7388;51.078;13.740;2024-02-16T09:28:10;23.13;;;20.58;;
14603;SDS011;7388;51.078;13.740;2024-02-16T09:30:37;22.57;;;18.67;;
14603;SDS011;7388;51.078;13.740;2024-02-16T09:33:03;21.38;;;19.15;;
14603;SDS011;7388;51.078;13.740;2024-02-16T09:35:29;22.30;;;18.57;;
14603;SDS011;7388;51.078;13.740;2024-02-16T09:37:54;23.70;;;21.33;;
14603;SDS011;7388;51.078;13.740;2024-02-16T09:40:21;23.73;;;19.83;;
14603;SDS011;7388;51.078;13.740;2024-02-16T09:42:48;21.73;;;19.23;;
14603;SDS011;7388;51.078;13.740;2024-02-16T09:45:15;23.77;;;20.92;;
14603;SDS011;7388;51.078;13.740;2024-02-16T09:47:44;22.73;;;19.42;;
14603;SDS011;7388;51.078;13.740;2024-02-16T09:50:12;24.45;;;21.13;;
14603;SDS011;7388;51.078;13.740;2024-02-16T09:52:38;22.95;;;20.02;;
14603;SDS011;7388;51.078;13.740;2024-02-16T09:55:07;25.25;;;20.67;;
14603;SDS011;7388;51.078;13.740;2024-02-16T09:57:37;22.65;;;18.58;;
14603;SDS011;7388;51.078;13.740;2024-02-16T10:00:03;27.00;;;19.27;;
14603;SDS011;7388;51.078;13.740;2024-02-16T10:02:47;21.73;;;19.25;;
14603;SDS011;7388;51.078;13.740;2024-02-16T10:05:17;25.40;;;19.25;;
14603;SDS011;7388;51.078;13.740;2024-02-16T10:07:45;22.10;;;19.10;;
14603;SDS011;7388;51.078;13.740;2024-02-16T10:13:04;21.60;;;19.30;;
14603;SDS011;7388;51.078;13.740;2024-02-16T10:15:34;20.60;;;18.45;;
14603;SDS011;7388;51.078;13.740;2024-02-16T10:20:30;21.58;;;18.67;;
14603;SDS011;7388;51.078;13.740;2024-02-16T10:23:06;25.30;;;21.27;;
14603;SDS011;7388;51.078;13.740;2024-02-16T10:25:34;24.35;;;21.83;;
14603;SDS011;7388;51.078;13.740;2024-02-16T10:28:19;23.17;;;20.42;;
14603;SDS011;7388;51.078;13.740;2024-02-16T10:30:52;23.42;;;20.98;;
14603;SDS011;7388;51.078;13.740;2024-02-16T10:33:24;24.15;;;21.55;;
14603;SDS011;7388;51.078;13.740;2024-02-16T10:35:53;22.02;;;19.75;;
14603;SDS011;7388;51.078;13.740;2024-02-16T10:38:21;23.52;;;21.10;;
14603;SDS011;7388;51.078;13.740;2024-02-16T10:40:47;22.65;;;20.25;;
14603;SDS011;7388;51.078;13.740;2024-02-16T10:43:15;24.25;;;21.75;;
14603;SDS011;7388;51.078;13.740;2024-02-16T10:45:43;23.40;;;20.90;;
14603;SDS011;7388;51.078;13.740;2024-02-16T10:48:10;22.15;;;19.60;;
14603;SDS011;7388;51.078;13.740;2024-02-16T10:50:37;22.38;;;20.15;;
14603;SDS011;7388;51.078;13.740;2024-02-16T10:53:04;25.70;;;21.70;;
14603;SDS011;7388;51.078;13.740;2024-02-16T10:55:40;25.00;;;22.45;;
14603;SDS011;7388;51.078;13.740;2024-02-16T10:58:07;23.15;;;20.73;;
14603;SDS011;7388;51.078;13.740;2024-02-16T11:00:34;23.85;;;21.38;;
14603;SDS011;7388;51.078;13.740;2024-02-16T11:03:01;23.30;;;20.80;;
14603;SDS011;7388;51.078;13.740;2024-02-16T11:05:34;22.20;;;20.00;;
14603;SDS011;7388;51.078;13.740;2024-02-16T11:08:04;25.27;;;21.30;;
14603;SDS011;7388;51.078;13.740;2024-02-16T11:10:36;24.83;;;19.83;;
14603;SDS011;7388;51.078;13.740;2024-02-16T11:13:02;25.23;;;21.60;;
14603;SDS011;7388;51.078;13.740;2024-02-16T11:15:33;21.83;;;19.63;;
14603;SDS011;7388;51.078;13.740;2024-02-16T11:18:01;24.42;;;21.83;;
14603;SDS011;7388;51.078;13.740;2024-02-16T11:20:28;23.45;;;20.90;;
14603;SDS011;7388;51.078;13.740;2024-02-16T11:23:04;25.75;;;23.25;;
14603;SDS011;7388;51.078;13.740;2024-02-16T11:25:32;22.73;;;20.33;;
14603;SDS011;7388;51.078;13.740;2024-02-16T11:27:58;23.52;;;21.02;;
14603;SDS011;7388;51.078;13.740;2024-02-16T11:30:24;21.98;;;19.73;;
14603;SDS011;7388;51.078;13.740;2024-02-16T11:32:53;27.00;;;20.80;;
14603;SDS011;7388;51.078;13.740;2024-02-16T11:35:19;24.80;;;21.83;;
14603;SDS011;7388;51.078;13.740;2024-02-16T11:37:45;24.57;;;21.97;;
14603;SDS011;7388;51.078;13.740;2024-02-16T11:40:12;26.55;;;23.95;;
14603;SDS011;7388;51.078;13.740;2024-02-16T11:42:38;25.02;;;20.33;;
14603;SDS011;7388;51.078;13.740;2024-02-16T11:45:04;23.70;;;21.20;;
14603;SDS011;7388;51.078;13.740;2024-02-16T11:47:31;23.13;;;20.42;;
14603;SDS011;7388;51.078;13.740;2024-02-16T11:50:00;21.20;;;19.10;;
14603;SDS011;7388;51.078;13.740;2024-02-16T11:52:26;20.48;;;18.38;;
14603;SDS011;7388;51.078;13.740;2024-02-16T11:54:52;20.92;;;18.85;;
14603;SDS011;7388;51.078;13.740;2024-02-16T11:57:19;23.25;;;19.88;;
14603;SDS011;7388;51.078;13.740;2024-02-16T11:59:45;20.98;;;18.80;;
14603;SDS011;7388;51.078;13.740;2024-02-16T12:02:16;23.83;;;21.25;;
14603;SDS011;7388;51.078;13.740;2024-02-16T12:04:47;23.02;;;20.55;;
14603;SDS011;7388;51.078;13.740;2024-02-16T12:07:13;23.05;;;20.65;;
14603;SDS011;7388;51.078;13.740;2024-02-16T12:09:39;21.85;;;19.75;;
14603;SDS011;7388;51.078;13.740;2024-02-16T12:12:05;20.95;;;18.83;;
14603;SDS011;7388;51.078;13.740;2024-02-16T12:14:32;22.45;;;19.65;;
14603;SDS011;7388;51.078;13.740;2024-02-16T12:16:58;23.88;;;21.33;;
14603;SDS011;7388;51.078;13.740;2024-02-16T12:19:24;21.57;;;19.27;;
14603;SDS011;7388;51.078;13.740;2024-02-16T12:21:51;21.25;;;18.95;;
14603;SDS011;7388;51.078;13.740;2024-02-16T12:24:20;21.13;;;18.90;;
14603;SDS011;7388;51.078;13.740;2024-02-16T12:26:46;21.60;;;19.45;;
14603;SDS011;7388;51.078;13.740;2024-02-16T12:29:12;22.23;;;20.10;;
14603;SDS011;7388;51.078;13.740;2024-02-16T12:31:41;20.10;;;18.10;;
14603;SDS011;7388;51.078;13.740;2024-02-16T12:34:09;19.80;;;17.75;;
14603;SDS011;7388;51.078;13.740;2024-02-16T12:36:36;19.13;;;17.25;;
14603;SDS011;7388;51.078;13.740;2024-02-16T12:39:06;20.13;;;18.02;;
14603;SDS011;7388;51.078;13.740;2024-02-16T12:41:33;17.38;;;15.68;;
14603;SDS011;7388;51.078;13.740;2024-02-16T12:44:00;17.85;;;16.17;;
14603;SDS011;7388;51.078;13.740;2024-02-16T12:46:26;20.00;;;18.00;;
14603;SDS011;7388;51.078;13.740;2024-02-16T12:48:53;20.42;;;18.23;;
14603;SDS011;7388;51.078;13.740;2024-02-16T12:51:19;19.07;;;17.13;;
14603;SDS011;7388;51.078;13.740;2024-02-16T12:53:45;20.70;;;18.50;;
14603;SDS011;7388;51.078;13.740;2024-02-16T12:56:11;20.23;;;18.15;;
14603;SDS011;7388;51.078;13.740;2024-02-16T12:58:37;19.30;;;17.35;;
14603;SDS011;7388;51.078;13.740;2024-02-16T13:01:03;18.95;;;16.95;;
14603;SDS011;7388;51.078;13.740;2024-02-16T13:03:35;17.70;;;15.95;;
14603;SDS011;7388;51.078;13.740;2024-02-16T13:06:02;20.25;;;18.17;;
14603;SDS011;7388;51.078;13.740;2024-02-16T13:08:29;18.50;;;16.70;;
14603;SDS011;7388;51.078;13.740;2024-02-16T13:10:55;19.92;;;17.73;;
14603;SDS011;7388;51.078;13.740;2024-02-16T13:13:21;16.05;;;14.48;;
14603;SDS011;7388;51.078;13.740;2024-02-16T13:15:47;17.60;;;15.87;;
14603;SDS011;7388;51.078;13.740;2024-02-16T13:18:14;19.10;;;14.27;;
14603;SDS011;7388;51.078;13.740;2024-02-16T13:20:40;15.27;;;13.88;;
14603;SDS011;7388;51.078;13.740;2024-02-16T13:23:05;17.70;;;15.00;;
14603;SDS011;7388;51.078;13.740;2024-02-16T13:25:31;14.70;;;13.20;;
14603;SDS011;7388;51.078;13.740;2024-02-16T13:27:57;15.20;;;13.50;;
14603;SDS011;7388;51.078;13.740;2024-02-16T13:30:24;16.13;;;14.52;;
14603;SDS011;7388;51.078;13.740;2024-02-16T13:32:50;16.00;;;14.30;;
14603;SDS011;7388;51.078;13.740;2024-02-16T13:35:16;16.87;;;13.43;;
14603;SDS011;7388;51.078;13.740;2024-02-16T13:37:42;15.23;;;13.80;;
14603;SDS011;7388;51.078;13.740;2024-02-16T13:40:08;18.40;;;16.50;;
14603;SDS011;7388;51.078;13.740;2024-02-16T13:42:39;16.70;;;14.90;;
14603;SDS011;7388;51.078;13.740;2024-02-16T13:45:08;17.52;;;15.60;;
14603;SDS011;7388;51.078;13.740;2024-02-16T13:47:35;17.30;;;15.60;;
14603;SDS011;7388;51.078;13.740;2024-02-16T13:50:00;16.90;;;14.87;;
14603;SDS011;7388;51.078;13.740;2024-02-16T13:52:26;18.73;;;16.75;;
14603;SDS011;7388;51.078;13.740;2024-02-16T13:54:52;18.07;;;15.90;;
14603;SDS011;7388;51.078;13.740;2024-02-16T13:57:19;19.70;;;17.60;;
14603;SDS011;7388;51.078;13.740;2024-02-16T13:59:45;20.27;;;17.13;;
14603;SDS011;7388;51.078;13.740;2024-02-16T14:02:12;18.83;;;16.55;;
14603;SDS011;7388;51.078;13.740;2024-02-16T14:04:38;21.77;;;17.75;;
14603;SDS011;7388;51.078;13.740;2024-02-16T14:07:04;18.60;;;16.70;;
14603;SDS011;7388;51.078;13.740;2024-02-16T14:09:30;20.00;;;17.10;;
14603;SDS011;7388;51.078;13.740;2024-02-16T14:11:55;19.80;;;17.90;;
14603;SDS011;7388;51.078;13.740;2024-02-16T14:14:24;18.90;;;17.00;;
14603;SDS011;7388;51.078;13.740;2024-02-16T14:16:50;19.98;;;17.90;;
14603;SDS011;7388;51.078;13.740;2024-02-16T14:19:16;19.20;;;17.15;;
14603;SDS011;7388;51.078;13.740;2024-02-16T14:21:45;21.03;;;18.93;;
14603;SDS011;7388;51.078;13.740;2024-02-16T14:24:12;24.52;;;20.10;;